sensor_id;sensor_type;location;lat;lon;timestamp;pressure;altitude;pressure_sealevel;temperature;humidity
62976;BME280;49071;0.000;0.000;2023-03-04T06:56:31;100812.19;;;16.58;32.95
62976;BME280;49071;0.000;0.000;2023-03-04T06:59:31;100812.97;;;16.60;32.82
62976;BME280;49071;0.000;0.000;2023-03-04T07:02:32;100810.06;;;16.67;33.12
62976;BME280;49071;0.000;0.000;2023-03-04T07:05:32;100807.94;;;16.77;33.03
62976;BME280;49071;0.000;0.000;2023-03-04T07:08:32;100810.16;;;16.88;32.95
62976;BME280;49071;0.000;0.000;2023-03-04T07:11:32;100807.75;;;17.04;32.72
62976;BME280;49071;0.000;0.000;2023-03-04T07:14:33;100811.44;;;17.20;33.12
62976;BME280;49071;0.000;0.000;2023-03-04T07:17:33;100805.50;;;17.37;32.17
62976;BME280;49071;0.000;0.000;2023-03-04T07:20:33;100810.13;;;17.52;32.16
62976;BME280;49071;0.000;0.000;2023-03-04T07:23:34;100815.22;;;17.76;31.53
62976;BME280;49071;0.000;0.000;2023-03-04T07:26:34;100813.84;;;17.87;32.31
62976;BME280;49071;0.000;0.000;2023-03-04T07:29:36;100814.75;;;18.07;31.31
62976;BME280;49071;0.000;0.000;2023-03-04T07:32:36;100820.44;;;18.16;31.27
62976;BME280;49071;0.000;0.000;2023-03-04T07:35:37;100819.84;;;18.29;31.58
62976;BME280;49071;0.000;0.000;2023-03-04T07:38:37;100816.91;;;18.36;31.50
62976;BME280;49071;0.000;0.000;2023-03-04T07:41:37;100817.53;;;18.41;31.23
62976;BME280;49071;0.000;0.000;2023-03-04T07:44:38;100815.59;;;18.45;31.25
62976;BME280;49071;0.000;0.000;2023-03-04T07:47:38;100820.56;;;18.51;31.40
62976;BME280;49071;0.000;0.000;2023-03-04T07:50:40;100818.03;;;18.50;31.06
62976;BME280;49071;0.000;0.000;2023-03-04T07:53:41;100813.91;;;18.44;31.30
62976;BME280;49071;0.000;0.000;2023-03-04T07:56:42;100817.88;;;18.34;31.35
62976;BME280;49071;0.000;0.000;2023-03-04T07:59:42;100814.69;;;18.27;31.37
62976;BME280;49071;0.000;0.000;2023-03-04T08:02:42;100819.09;;;18.27;31.55
62976;BME280;49071;0.000;0.000;2023-03-04T08:05:42;100819.00;;;18.28;31.65
62976;BME280;49071;0.000;0.000;2023-03-04T08:08:42;100813.47;;;18.34;31.73
62976;BME280;49071;0.000;0.000;2023-03-04T08:11:43;100813.19;;;18.40;31.51
62976;BME280;49071;0.000;0.000;2023-03-04T08:14:43;100812.00;;;18.48;31.40
62976;BME280;49071;0.000;0.000;2023-03-04T08:17:43;100812.63;;;18.53;31.19
62976;BME280;49071;0.000;0.000;2023-03-04T08:20:44;100808.16;;;18.55;31.07
62976;BME280;49071;0.000;0.000;2023-03-04T08:23:44;100808.56;;;18.64;31.48
62976;BME280;49071;0.000;0.000;2023-03-04T08:26:45;100809.94;;;18.73;31.15
62976;BME280;49071;0.000;0.000;2023-03-04T08:29:46;100800.34;;;18.72;31.12
62976;BME280;49071;0.000;0.000;2023-03-04T08:32:46;100806.25;;;18.77;31.35
62976;BME280;49071;0.000;0.000;2023-03-04T08:35:46;100806.44;;;18.73;32.23
62976;BME280;49071;0.000;0.000;2023-03-04T08:38:46;100806.00;;;18.82;31.24
62976;BME280;49071;0.000;0.000;2023-03-04T08:41:47;100806.56;;;18.88;31.61
62976;BME280;49071;0.000;0.000;2023-03-04T08:44:47;100805.19;;;18.99;32.02
62976;BME280;49071;0.000;0.000;2023-03-04T08:47:48;100796.88;;;19.08;31.91
62976;BME280;49071;0.000;0.000;2023-03-04T08:50:49;100793.69;;;19.19;31.58
62976;BME280;49071;0.000;0.000;2023-03-04T08:53:50;100801.03;;;19.29;31.38
62976;BME280;49071;0.000;0.000;2023-03-04T08:56:50;100790.63;;;19.28;31.20
62976;BME280;49071;0.000;0.000;2023-03-04T08:59:50;100786.91;;;19.15;31.57
62976;BME280;49071;0.000;0.000;2023-03-04T09:02:50;100785.66;;;19.04;31.65
62976;BME280;49071;0.000;0.000;2023-03-04T09:05:51;100782.75;;;18.92;31.49
62976;BME280;49071;0.000;0.000;2023-03-04T09:08:51;100785.06;;;18.80;31.76
62976;BME280;49071;0.000;0.000;2023-03-04T09:11:51;100784.06;;;18.83;31.66
62976;BME280;49071;0.000;0.000;2023-03-04T09:14:51;100787.91;;;18.76;31.72
62976;BME280;49071;0.000;0.000;2023-03-04T09:17:51;100782.06;;;18.69;31.96
62976;BME280;49071;0.000;0.000;2023-03-04T09:20:52;100778.13;;;18.60;31.92
62976;BME280;49071;0.000;0.000;2023-03-04T09:23:52;100783.00;;;18.49;32.14
62976;BME280;49071;0.000;0.000;2023-03-04T09:26:52;100788.50;;;18.45;32.50
62976;BME280;49071;0.000;0.000;2023-03-04T09:29:53;100778.06;;;18.43;32.51
62976;BME280;49071;0.000;0.000;2023-03-04T09:32:54;100777.97;;;18.45;32.46
62976;BME280;49071;0.000;0.000;2023-03-04T09:35:54;100779.69;;;18.46;32.29
62976;BME280;49071;0.000;0.000;2023-03-04T09:38:54;100783.00;;;18.49;32.50
62976;BME280;49071;0.000;0.000;2023-03-04T09:41:57;100777.56;;;18.54;32.48
62976;BME280;49071;0.000;0.000;2023-03-04T09:44:58;100780.03;;;18.57;32.64
62976;BME280;49071;0.000;0.000;2023-03-04T09:47:58;100779.19;;;18.56;32.47
62976;BME280;49071;0.000;0.000;2023-03-04T09:54:20;100776.19;;;18.64;31.91
62976;BME280;49071;0.000;0.000;2023-03-04T10:03:39;100787.91;;;18.76;32.11
62976;BME280;49071;0.000;0.000;2023-03-04T10:06:42;100786.53;;;18.86;32.23
62976;BME280;49071;0.000;0.000;2023-03-04T10:09:50;100788.81;;;18.94;31.70
62976;BME280;49071;0.000;0.000;2023-03-04T10:12:53;100780.44;;;19.03;31.53
62976;BME280;49071;0.000;0.000;2023-03-04T10:15:54;100768.41;;;19.16;31.44
62976;BME280;49071;0.000;0.000;2023-03-04T10:19:00;100775.75;;;19.27;31.53
62976;BME280;49071;0.000;0.000;2023-03-04T10:22:09;100772.75;;;19.34;31.14
62976;BME280;49071;0.000;0.000;2023-03-04T10:25:21;100772.50;;;19.39;31.09
62976;BME280;49071;0.000;0.000;2023-03-04T10:28:23;100768.09;;;19.40;31.11
62976;BME280;49071;0.000;0.000;2023-03-04T10:31:32;100761.28;;;19.35;31.12
62976;BME280;49071;0.000;0.000;2023-03-04T10:34:35;100767.69;;;19.30;31.01
62976;BME280;49071;0.000;0.000;2023-03-04T10:37:42;100763.47;;;19.27;30.96
62976;BME280;49071;0.000;0.000;2023-03-04T10:40:43;100759.59;;;19.17;31.36
62976;BME280;49071;0.000;0.000;2023-03-04T10:43:43;100752.94;;;19.10;31.12
62976;BME280;49071;0.000;0.000;2023-03-04T10:46:48;100746.81;;;19.09;31.29
62976;BME280;49071;0.000;0.000;2023-03-04T10:49:50;100748.16;;;19.01;31.05
62976;BME280;49071;0.000;0.000;2023-03-04T10:52:51;100743.25;;;18.93;31.28
62976;BME280;49071;0.000;0.000;2023-03-04T10:55:54;100753.41;;;18.83;31.64
62976;BME280;49071;0.000;0.000;2023-03-04T10:58:56;100752.19;;;18.72;31.59
62976;BME280;49071;0.000;0.000;2023-03-04T11:02:17;100751.84;;;18.60;31.74
62976;BME280;49071;0.000;0.000;2023-03-04T11:08:20;100752.97;;;18.55;31.69
62976;BME280;49071;0.000;0.000;2023-03-04T11:11:29;100748.81;;;18.51;31.78
62976;BME280;49071;0.000;0.000;2023-03-04T11:14:38;100760.16;;;18.51;31.83
62976;BME280;49071;0.000;0.000;2023-03-04T11:17:41;100754.06;;;18.51;32.18
62976;BME280;49071;0.000;0.000;2023-03-04T11:20:43;100752.00;;;18.57;32.11
62976;BME280;49071;0.000;0.000;2023-03-04T11:26:50;100765.69;;;18.64;31.96
62976;BME280;49071;0.000;0.000;2023-03-04T11:29:57;100767.31;;;18.67;31.80
62976;BME280;49071;0.000;0.000;2023-03-04T11:33:11;100759.84;;;18.76;31.67
62976;BME280;49071;0.000;0.000;2023-03-04T11:36:18;100766.13;;;18.74;31.62
62976;BME280;49071;0.000;0.000;2023-03-04T11:42:51;100760.59;;;18.97;31.60
62976;BME280;49071;0.000;0.000;2023-03-04T11:55:57;100750.22;;;19.29;31.16
62976;BME280;49071;0.000;0.000;2023-03-04T11:58:56;100759.28;;;19.23;31.10
62976;BME280;49071;0.000;0.000;2023-03-04T12:02:10;100757.88;;;19.16;30.96
62976;BME280;49071;0.000;0.000;2023-03-04T12:08:26;100759.34;;;19.04;31.04
62976;BME280;49071;0.000;0.000;2023-03-04T12:11:33;100759.41;;;19.03;31.12
62976;BME280;49071;0.000;0.000;2023-03-04T12:18:06;100749.88;;;18.83;31.41
62976;BME280;49071;0.000;0.000;2023-03-04T12:21:44;100751.28;;;18.73;31.48
62976;BME280;49071;0.000;0.000;2023-03-04T12:27:56;100766.25;;;18.52;31.58
62976;BME280;49071;0.000;0.000;2023-03-04T12:43:52;100766.06;;;18.56;31.62
62976;BME280;49071;0.000;0.000;2023-03-04T12:50:21;100770.84;;;18.65;31.66
62976;BME280;49071;0.000;0.000;2023-03-04T12:56:34;100767.72;;;18.76;31.54
62976;BME280;49071;0.000;0.000;2023-03-04T12:59:37;100763.03;;;18.83;31.71
62976;BME280;49071;0.000;0.000;2023-03-04T13:05:57;100763.22;;;18.97;31.62
62976;BME280;49071;0.000;0.000;2023-03-04T13:09:05;100758.44;;;19.05;31.30
62976;BME280;49071;0.000;0.000;2023-03-04T13:12:14;100763.94;;;19.18;31.38
62976;BME280;49071;0.000;0.000;2023-03-04T13:18:32;100761.53;;;19.31;30.87
62976;BME280;49071;0.000;0.000;2023-03-04T13:21:33;100751.00;;;19.31;30.90
62976;BME280;49071;0.000;0.000;2023-03-04T13:24:43;100744.28;;;19.25;30.75
62976;BME280;49071;0.000;0.000;2023-03-04T13:33:52;100746.06;;;19.07;31.16
62976;BME280;49071;0.000;0.000;2023-03-04T13:36:54;100753.41;;;19.01;31.28
62976;BME280;49071;0.000;0.000;2023-03-04T13:40:22;100747.66;;;18.93;31.20
62976;BME280;49071;0.000;0.000;2023-03-04T13:43:24;100742.88;;;18.83;31.40
62976;BME280;49071;0.000;0.000;2023-03-04T13:49:26;100750.69;;;18.66;31.73
62976;BME280;49071;0.000;0.000;2023-03-04T13:55:39;100744.53;;;18.48;31.86
62976;BME280;49071;0.000;0.000;2023-03-04T13:58:42;100746.47;;;18.45;31.82
62976;BME280;49071;0.000;0.000;2023-03-04T14:04:43;100742.06;;;18.45;31.88
62976;BME280;49071;0.000;0.000;2023-03-04T14:07:44;100734.03;;;18.48;31.94
62976;BME280;49071;0.000;0.000;2023-03-04T14:10:44;100732.19;;;18.50;31.83
62976;BME280;49071;0.000;0.000;2023-03-04T14:13:53;100734.59;;;18.55;32.11
62976;BME280;49071;0.000;0.000;2023-03-04T14:16:55;100732.63;;;18.60;31.99
62976;BME280;49071;0.000;0.000;2023-03-04T14:19:56;100733.31;;;18.63;32.13
62976;BME280;49071;0.000;0.000;2023-03-04T14:22:59;100732.16;;;18.69;31.71
62976;BME280;49071;0.000;0.000;2023-03-04T14:26:07;100718.69;;;18.77;32.02
62976;BME280;49071;0.000;0.000;2023-03-04T14:32:21;100728.38;;;18.94;31.98
62976;BME280;49071;0.000;0.000;2023-03-04T14:35:23;100737.53;;;19.02;31.79
62976;BME280;49071;0.000;0.000;2023-03-04T14:38:28;100736.16;;;19.13;31.90
62976;BME280;49071;0.000;0.000;2023-03-04T14:41:33;100733.66;;;19.27;31.43
62976;BME280;49071;0.000;0.000;2023-03-04T14:44:34;100728.34;;;19.28;31.81
62976;BME280;49071;0.000;0.000;2023-03-04T14:47:39;100731.97;;;19.26;32.02
62976;BME280;49071;0.000;0.000;2023-03-04T14:50:46;100735.75;;;19.20;31.83
62976;BME280;49071;0.000;0.000;2023-03-04T14:53:52;100734.22;;;19.16;31.66
62976;BME280;49071;0.000;0.000;2023-03-04T14:56:52;100726.81;;;19.07;31.69
62976;BME280;49071;0.000;0.000;2023-03-04T14:59:53;100724.50;;;19.01;31.88
62976;BME280;49071;0.000;0.000;2023-03-04T15:02:54;100727.47;;;18.93;31.81
62976;BME280;49071;0.000;0.000;2023-03-04T15:05:55;100733.22;;;18.84;31.71
62976;BME280;49071;0.000;0.000;2023-03-04T15:09:05;100732.72;;;18.76;31.76
62976;BME280;49071;0.000;0.000;2023-03-04T15:12:07;100736.66;;;18.67;32.03
62976;BME280;49071;0.000;0.000;2023-03-04T15:18:27;100734.88;;;18.49;32.26
62976;BME280;49071;0.000;0.000;2023-03-04T15:24:29;100730.72;;;18.45;32.26
62976;BME280;49071;0.000;0.000;2023-03-04T15:27:29;100734.28;;;18.44;32.55
62976;BME280;49071;0.000;0.000;2023-03-04T15:30:30;100730.66;;;18.46;32.27
62976;BME280;49071;0.000;0.000;2023-03-04T15:33:31;100722.69;;;18.48;32.21
62976;BME280;49071;0.000;0.000;2023-03-04T15:36:31;100726.94;;;18.50;32.13
62976;BME280;49071;0.000;0.000;2023-03-04T15:39:31;100732.91;;;18.54;32.63
62976;BME280;49071;0.000;0.000;2023-03-04T15:42:31;100735.28;;;18.58;32.01
62976;BME280;49071;0.000;0.000;2023-03-04T15:45:33;100734.16;;;18.64;32.24
62976;BME280;49071;0.000;0.000;2023-03-04T15:48:35;100730.25;;;18.73;32.17
62976;BME280;49071;0.000;0.000;2023-03-04T15:51:35;100737.31;;;18.90;32.36
62976;BME280;49071;0.000;0.000;2023-03-04T15:54:35;100735.16;;;18.98;31.87
62976;BME280;49071;0.000;0.000;2023-03-04T15:57:35;100727.50;;;19.10;32.06
62976;BME280;49071;0.000;0.000;2023-03-04T16:00:36;100727.81;;;19.22;32.48
62976;BME280;49071;0.000;0.000;2023-03-04T16:03:36;100735.22;;;19.31;32.39
62976;BME280;49071;0.000;0.000;2023-03-04T16:06:36;100728.34;;;19.28;31.83
62976;BME280;49071;0.000;0.000;2023-03-04T16:09:36;100737.16;;;19.27;31.84
62976;BME280;49071;0.000;0.000;2023-03-04T16:12:36;100747.00;;;19.24;31.76
62976;BME280;49071;0.000;0.000;2023-03-04T16:15:37;100763.00;;;19.19;31.83
62976;BME280;49071;0.000;0.000;2023-03-04T16:18:38;100762.28;;;19.16;31.95
62976;BME280;49071;0.000;0.000;2023-03-04T16:21:39;100766.16;;;19.08;31.83
62976;BME280;49071;0.000;0.000;2023-03-04T16:24:39;100771.66;;;19.04;31.97
62976;BME280;49071;0.000;0.000;2023-03-04T16:27:40;100774.59;;;18.98;32.08
62976;BME280;49071;0.000;0.000;2023-03-04T16:30:40;100775.72;;;18.92;32.31
62976;BME280;49071;0.000;0.000;2023-03-04T16:33:41;100782.22;;;18.85;32.32
62976;BME280;49071;0.000;0.000;2023-03-04T16:36:41;100786.06;;;18.78;32.34
62976;BME280;49071;0.000;0.000;2023-03-04T16:39:42;100790.53;;;18.76;32.73
62976;BME280;49071;0.000;0.000;2023-03-04T16:42:44;100790.03;;;18.68;32.87
62976;BME280;49071;0.000;0.000;2023-03-04T16:45:45;100796.50;;;18.60;32.83
62976;BME280;49071;0.000;0.000;2023-03-04T16:48:46;100789.84;;;18.53;32.79
62976;BME280;49071;0.000;0.000;2023-03-04T16:51:47;100796.09;;;18.51;33.09
62976;BME280;49071;0.000;0.000;2023-03-04T16:54:48;100805.81;;;18.49;33.30
62976;BME280;49071;0.000;0.000;2023-03-04T16:57:49;100806.81;;;18.46;33.60
62976;BME280;49071;0.000;0.000;2023-03-04T17:00:49;100809.50;;;18.45;33.29
62976;BME280;49071;0.000;0.000;2023-03-04T17:03:49;100810.28;;;18.47;33.43
62976;BME280;49071;0.000;0.000;2023-03-04T17:06:50;100819.72;;;18.51;33.33
62976;BME280;49071;0.000;0.000;2023-03-04T17:09:50;100813.50;;;18.53;33.47
62976;BME280;49071;0.000;0.000;2023-03-04T17:12:50;100813.16;;;18.59;33.46
62976;BME280;49071;0.000;0.000;2023-03-04T17:15:51;100819.78;;;18.68;33.46
62976;BME280;49071;0.000;0.000;2023-03-04T17:18:51;100826.63;;;18.72;32.99
62976;BME280;49071;0.000;0.000;2023-03-04T17:21:51;100828.97;;;18.78;32.81
62976;BME280;49071;0.000;0.000;2023-03-04T17:24:51;100826.75;;;18.88;33.63
62976;BME280;49071;0.000;0.000;2023-03-04T17:27:52;100824.59;;;18.96;32.83
62976;BME280;49071;0.000;0.000;2023-03-04T17:30:52;100831.88;;;19.08;33.14
62976;BME280;49071;0.000;0.000;2023-03-04T17:33:52;100833.94;;;19.21;33.02
62976;BME280;49071;0.000;0.000;2023-03-04T17:36:52;100838.00;;;19.26;32.70
62976;BME280;49071;0.000;0.000;2023-03-04T17:39:52;100834.47;;;19.27;32.43
62976;BME280;49071;0.000;0.000;2023-03-04T17:42:53;100831.75;;;19.29;32.71
62976;BME280;49071;0.000;0.000;2023-03-04T17:46:00;100844.91;;;19.29;32.69
62976;BME280;49071;0.000;0.000;2023-03-04T17:49:00;100845.91;;;19.26;32.74
62976;BME280;49071;0.000;0.000;2023-03-04T17:52:01;100843.56;;;19.20;32.61
62976;BME280;49071;0.000;0.000;2023-03-04T17:55:02;100843.66;;;19.19;32.60
62976;BME280;49071;0.000;0.000;2023-03-04T17:58:02;100845.72;;;19.12;32.64
62976;BME280;49071;0.000;0.000;2023-03-04T18:01:16;100846.97;;;19.05;33.00
62976;BME280;49071;0.000;0.000;2023-03-04T18:04:17;100846.41;;;18.98;32.82
62976;BME280;49071;0.000;0.000;2023-03-04T18:07:17;100844.91;;;18.93;33.25
62976;BME280;49071;0.000;0.000;2023-03-04T18:10:18;100847.91;;;18.85;33.20
62976;BME280;49071;0.000;0.000;2023-03-04T18:13:18;100844.72;;;18.78;33.24
62976;BME280;49071;0.000;0.000;2023-03-04T18:16:19;100847.50;;;18.75;33.11
62976;BME280;49071;0.000;0.000;2023-03-04T18:19:23;100843.50;;;18.67;33.33
62976;BME280;49071;0.000;0.000;2023-03-04T18:22:23;100849.19;;;18.57;33.34
62976;BME280;49071;0.000;0.000;2023-03-04T18:25:24;100839.03;;;18.50;33.74
62976;BME280;49071;0.000;0.000;2023-03-04T18:28:24;100828.69;;;18.47;33.86
62976;BME280;49071;0.000;0.000;2023-03-04T18:31:25;100834.91;;;18.44;33.76
62976;BME280;49071;0.000;0.000;2023-03-04T18:34:26;100832.50;;;18.39;34.00
62976;BME280;49071;0.000;0.000;2023-03-04T18:37:26;100829.00;;;18.39;34.11
62976;BME280;49071;0.000;0.000;2023-03-04T18:40:26;100838.63;;;18.40;33.87
62976;BME280;49071;0.000;0.000;2023-03-04T18:43:27;100834.13;;;18.42;33.79
62976;BME280;49071;0.000;0.000;2023-03-04T18:46:33;100833.94;;;18.47;34.02
62976;BME280;49071;0.000;0.000;2023-03-04T18:49:39;100831.94;;;18.52;33.89
62976;BME280;49071;0.000;0.000;2023-03-04T18:52:41;100835.25;;;18.55;33.94
62976;BME280;49071;0.000;0.000;2023-03-04T18:55:41;100841.09;;;18.62;33.73
62976;BME280;49071;0.000;0.000;2023-03-04T18:58:42;100830.22;;;18.70;34.11
62976;BME280;49071;0.000;0.000;2023-03-04T19:01:44;100834.22;;;18.78;33.57
62976;BME280;49071;0.000;0.000;2023-03-04T19:04:45;100833.84;;;18.86;33.55
62976;BME280;49071;0.000;0.000;2023-03-04T19:07:45;100835.97;;;18.97;33.09
62976;BME280;49071;0.000;0.000;2023-03-04T19:10:45;100837.22;;;19.07;32.86
62976;BME280;49071;0.000;0.000;2023-03-04T19:13:46;100840.19;;;19.18;33.04
62976;BME280;49071;0.000;0.000;2023-03-04T19:16:46;100835.47;;;19.25;32.66
62976;BME280;49071;0.000;0.000;2023-03-04T19:19:46;100837.94;;;19.28;32.65
62976;BME280;49071;0.000;0.000;2023-03-04T19:22:46;100837.94;;;19.28;32.74
62976;BME280;49071;0.000;0.000;2023-03-04T19:25:47;100841.66;;;19.24;32.72
62976;BME280;49071;0.000;0.000;2023-03-04T19:28:47;100835.69;;;19.20;32.85
62976;BME280;49071;0.000;0.000;2023-03-04T19:31:47;100834.13;;;19.16;33.35
62976;BME280;49071;0.000;0.000;2023-03-04T19:34:47;100841.41;;;19.11;33.13
62976;BME280;49071;0.000;0.000;2023-03-04T19:37:48;100840.78;;;19.06;33.16
62976;BME280;49071;0.000;0.000;2023-03-04T19:40:48;100838.28;;;19.03;32.95
62976;BME280;49071;0.000;0.000;2023-03-04T19:43:48;100837.72;;;18.96;33.24
62976;BME280;49071;0.000;0.000;2023-03-04T19:46:49;100838.75;;;18.94;33.57
62976;BME280;49071;0.000;0.000;2023-03-04T19:49:49;100837.50;;;18.83;33.68
62976;BME280;49071;0.000;0.000;2023-03-04T19:52:49;100843.88;;;18.78;33.41
62976;BME280;49071;0.000;0.000;2023-03-04T19:55:49;100835.34;;;18.73;33.55
62976;BME280;49071;0.000;0.000;2023-03-04T19:58:52;100842.59;;;18.68;33.55
62976;BME280;49071;0.000;0.000;2023-03-04T20:01:52;100844.78;;;18.58;33.86
62976;BME280;49071;0.000;0.000;2023-03-04T20:04:53;100844.31;;;18.50;33.79
62976;BME280;49071;0.000;0.000;2023-03-04T20:07:53;100843.72;;;18.43;34.27
62976;BME280;49071;0.000;0.000;2023-03-04T20:10:53;100842.00;;;18.42;34.04
62976;BME280;49071;0.000;0.000;2023-03-04T20:13:53;100844.50;;;18.45;34.17
62976;BME280;49071;0.000;0.000;2023-03-04T20:16:56;100841.69;;;18.50;34.04
62976;BME280;49071;0.000;0.000;2023-03-04T20:19:57;100844.91;;;18.55;34.20
62976;BME280;49071;0.000;0.000;2023-03-04T20:22:57;100850.84;;;18.60;34.12
62976;BME280;49071;0.000;0.000;2023-03-04T20:25:58;100853.22;;;18.64;33.90
62976;BME280;49071;0.000;0.000;2023-03-04T20:28:58;100849.41;;;18.72;34.45
62976;BME280;49071;0.000;0.000;2023-03-04T20:31:58;100837.78;;;18.77;34.05
62976;BME280;49071;0.000;0.000;2023-03-04T20:35:00;100840.81;;;18.87;34.01
62976;BME280;49071;0.000;0.000;2023-03-04T20:38:00;100841.06;;;19.00;34.12
62976;BME280;49071;0.000;0.000;2023-03-04T20:41:01;100843.41;;;19.06;33.52
62976;BME280;49071;0.000;0.000;2023-03-04T20:44:01;100846.38;;;19.17;33.88
62976;BME280;49071;0.000;0.000;2023-03-04T20:47:01;100846.97;;;19.22;33.57
62976;BME280;49071;0.000;0.000;2023-03-04T20:50:01;100839.09;;;19.22;33.74
62976;BME280;49071;0.000;0.000;2023-03-04T20:53:02;100843.50;;;19.22;33.43
62976;BME280;49071;0.000;0.000;2023-03-04T20:56:02;100846.19;;;19.20;33.53
62976;BME280;49071;0.000;0.000;2023-03-04T20:59:03;100847.28;;;19.16;33.55
62976;BME280;49071;0.000;0.000;2023-03-04T21:02:04;100840.47;;;19.12;33.57
62976;BME280;49071;0.000;0.000;2023-03-04T21:05:05;100841.56;;;19.08;33.55
62976;BME280;49071;0.000;0.000;2023-03-04T21:08:05;100830.34;;;19.04;33.90
62976;BME280;49071;0.000;0.000;2023-03-04T21:11:06;100835.75;;;19.01;33.92
62976;BME280;49071;0.000;0.000;2023-03-04T21:14:12;100836.88;;;18.96;34.11
62976;BME280;49071;0.000;0.000;2023-03-04T21:17:13;100837.16;;;18.90;34.25
62976;BME280;49071;0.000;0.000;2023-03-04T21:20:14;100825.34;;;18.81;34.06
62976;BME280;49071;0.000;0.000;2023-03-04T21:23:14;100824.00;;;18.72;34.03
62976;BME280;49071;0.000;0.000;2023-03-04T21:26:15;100835.69;;;18.65;34.06
62976;BME280;49071;0.000;0.000;2023-03-04T21:29:16;100831.72;;;18.56;34.16
62976;BME280;49071;0.000;0.000;2023-03-04T21:32:23;100820.66;;;18.50;34.40
62976;BME280;49071;0.000;0.000;2023-03-04T21:35:24;100828.88;;;18.42;34.64
62976;BME280;49071;0.000;0.000;2023-03-04T21:38:24;100819.56;;;18.35;34.33
62976;BME280;49071;0.000;0.000;2023-03-04T21:41:25;100827.72;;;18.29;34.59
62976;BME280;49071;0.000;0.000;2023-03-04T21:44:25;100825.47;;;18.21;34.90
62976;BME280;49071;0.000;0.000;2023-03-04T21:47:26;100823.94;;;18.15;34.83
62976;BME280;49071;0.000;0.000;2023-03-04T21:50:27;100819.91;;;18.08;35.26
62976;BME280;49071;0.000;0.000;2023-03-04T21:53:27;100818.44;;;18.03;35.03
62976;BME280;49071;0.000;0.000;2023-03-04T21:56:27;100817.84;;;17.96;35.22
62976;BME280;49071;0.000;0.000;2023-03-04T21:59:27;100816.19;;;17.93;35.06
62976;BME280;49071;0.000;0.000;2023-03-04T22:02:28;100807.66;;;17.88;35.25
62976;BME280;49071;0.000;0.000;2023-03-04T22:05:28;100808.22;;;17.76;35.02
